Time;durP1;ratioP1;P1;durP2;ratioP2;P2;SDS_P1;SDS_P2;PMS_P1;PMS_P2;Temp;Humidity;BMP_temperature;BMP_pressure;BME280_temperature;BME280_humidity;BME280_pressure;Samples;Min_cycle;Max_cycle;Signal;HPM_P1;HPM_P2
2022/03/18 00:02:05;;;;;;;9.18;3.28;;;6.80;71.20;;;;;;4990687;28;20030;-78
2022/03/18 00:04:31;;;;;;;10.05;2.80;;;6.70;72.10;;;;;;4994442;28;20030;-77
2022/03/18 00:06:56;;;;;;;7.25;3.13;;;6.80;71.80;;;;;;4991234;28;20030;-77
2022/03/18 00:09:22;;;;;;;6.95;3.70;;;6.80;71.80;;;;;;4986875;28;20038;-77
2022/03/18 00:11:48;;;;;;;5.07;3.03;;;6.70;71.80;;;;;;4995347;28;20080;-77
2022/03/18 00:14:14;;;;;;;6.13;2.78;;;6.60;72.10;;;;;;4998254;28;20060;-78
2022/03/18 00:16:40;;;;;;;6.93;2.92;;;6.60;71.70;;;;;;4991808;28;20091;-77
2022/03/18 00:19:06;;;;;;;5.18;2.58;;;6.50;71.70;;;;;;4980453;28;20042;-77
2022/03/18 00:21:34;;;;;;;8.05;3.28;;;6.60;71.80;;;;;;4980129;28;20029;-77
2022/03/18 00:24:00;;;;;;;5.80;2.90;;;6.60;71.60;;;;;;4993811;28;20062;-77
2022/03/18 00:26:26;;;;;;;6.97;3.17;;;6.60;71.30;;;;;;4979706;28;20050;-78
2022/03/18 00:28:52;;;;;;;5.43;3.03;;;6.50;71.30;;;;;;4994580;28;20523;-77
2022/03/18 00:31:17;;;;;;;5.03;3.28;;;6.50;71.10;;;;;;4982422;28;20030;-77
2022/03/18 00:33:43;;;;;;;3.60;2.50;;;6.50;71.50;;;;;;4994806;28;20034;-77
2022/03/18 00:36:09;;;;;;;7.53;2.95;;;6.50;71.00;;;;;;4979713;28;20033;-77
2022/03/18 00:38:34;;;;;;;5.72;3.10;;;6.50;71.20;;;;;;4979560;28;20074;-77
2022/03/18 00:41:01;;;;;;;9.30;3.33;;;6.40;71.40;;;;;;4994842;28;20019;-78
2022/03/18 00:43:26;;;;;;;9.05;3.33;;;6.40;71.40;;;;;;4979530;28;20031;-78
2022/03/18 00:45:52;;;;;;;8.55;3.47;;;6.30;71.50;;;;;;4979371;28;20106;-78
2022/03/18 00:53:46;;;;;;;6.13;3.03;;;6.20;71.90;;;;;;4979620;28;20081;-77
2022/03/18 00:56:12;;;;;;;6.13;2.90;;;6.20;72.20;;;;;;4979330;28;20019;-78
2022/03/18 00:58:38;;;;;;;4.78;2.78;;;6.10;72.40;;;;;;4979385;28;20027;-77
2022/03/18 01:01:04;;;;;;;6.93;3.10;;;6.10;72.20;;;;;;4997648;28;20118;-78
2022/03/18 01:03:29;;;;;;;5.20;3.08;;;6.00;72.30;;;;;;4998553;28;20022;-78
2022/03/18 01:05:55;;;;;;;3.63;2.90;;;6.00;72.00;;;;;;4996834;28;20034;-78
2022/03/18 01:08:21;;;;;;;5.63;3.03;;;5.90;72.10;;;;;;4998708;28;20033;-78
2022/03/18 01:10:48;;;;;;;5.55;2.97;;;5.80;72.10;;;;;;4998622;28;20026;-78
2022/03/18 01:13:14;;;;;;;6.05;2.78;;;5.90;72.00;;;;;;4984975;28;20431;-78
2022/03/18 01:15:40;;;;;;;5.35;2.33;;;5.90;71.60;;;;;;4979217;28;20019;-78
2022/03/18 01:18:06;;;;;;;4.38;2.40;;;6.00;70.90;;;;;;4978966;28;20030;-78
2022/03/18 01:20:32;;;;;;;5.57;2.00;;;6.00;70.90;;;;;;4978943;28;20505;-77
2022/03/18 01:22:57;;;;;;;6.25;2.40;;;6.10;70.30;;;;;;4978775;28;20046;-78
2022/03/18 01:25:23;;;;;;;8.60;2.60;;;6.20;69.70;;;;;;4977760;28;20556;-77
2022/03/18 01:27:49;;;;;;;6.88;2.42;;;6.20;69.50;;;;;;4978674;28;20662;-78
2022/03/18 01:30:15;;;;;;;6.55;2.75;;;6.30;69.00;;;;;;4993722;28;20027;-78
2022/03/18 01:32:41;;;;;;;7.43;2.70;;;6.40;69.00;;;;;;4992696;28;20465;-77
2022/03/18 01:35:07;;;;;;;9.35;2.85;;;6.40;68.60;;;;;;4977302;28;20057;-77
2022/03/18 01:37:33;;;;;;;6.75;2.38;;;6.50;68.40;;;;;;4978836;28;20026;-78
2022/03/18 01:39:59;;;;;;;8.93;2.83;;;6.60;68.10;;;;;;4978401;28;20121;-78
2022/03/18 01:42:25;;;;;;;7.97;2.45;;;6.50;68.20;;;;;;4993485;28;20034;-78
2022/03/18 01:44:51;;;;;;;5.72;2.47;;;6.50;68.10;;;;;;4988726;28;20031;-78
2022/03/18 01:47:18;;;;;;;4.55;1.90;;;6.60;68.10;;;;;;4984004;28;20031;-78
2022/03/18 01:49:44;;;;;;;4.35;2.08;;;6.60;67.90;;;;;;4998070;28;20029;-78
2022/03/18 01:52:11;;;;;;;6.38;2.63;;;6.60;68.00;;;;;;4998044;28;20035;-78
2022/03/18 01:54:49;;;;;;;5.55;2.25;;;6.60;67.40;;;;;;4982290;28;20035;-77
2022/03/18 01:57:21;;;;;;;4.47;2.25;;;6.50;67.70;;;;;;4993321;28;20054;-78
2022/03/18 01:59:48;;;;;;;6.07;2.28;;;6.50;68.00;;;;;;4990120;28;20036;-78
2022/03/18 02:02:15;;;;;;;7.18;1.98;;;6.40;68.00;;;;;;4996631;28;20053;-77
2022/03/18 02:04:41;;;;;;;7.00;2.28;;;6.40;68.20;;;;;;4997805;28;20093;-77
2022/03/18 02:07:08;;;;;;;4.03;2.33;;;6.40;68.20;;;;;;4980388;28;20039;-78
2022/03/18 02:09:35;;;;;;;4.93;2.45;;;6.30;68.70;;;;;;4990368;28;20026;-78
2022/03/18 02:12:02;;;;;;;6.20;2.35;;;6.20;69.20;;;;;;4997577;28;20042;-77
2022/03/18 02:14:37;;;;;;;3.72;1.95;;;6.20;69.00;;;;;;4992186;28;20038;-77
2022/03/18 02:17:07;;;;;;;4.70;2.15;;;6.20;69.00;;;;;;4977830;28;20033;-78
2022/03/18 02:19:33;;;;;;;;;;;6.20;68.80;;;;;;4978332;28;20505;-78
2022/03/18 02:22:00;;;;;;;4.35;1.73;;;6.10;69.30;;;;;;4992980;28;19910;-78
2022/03/18 02:24:25;;;;;;;6.90;3.00;;;6.20;69.40;;;;;;4980861;28;20073;-78
2022/03/18 02:26:52;;;;;;;7.05;2.15;;;6.20;69.00;;;;;;4995926;28;20050;-77
2022/03/18 02:29:19;;;;;;;4.88;2.50;;;6.20;69.00;;;;;;4979447;28;20026;-77
2022/03/18 02:31:45;;;;;;;3.88;2.22;;;6.20;69.50;;;;;;4977759;28;20039;-77
2022/03/18 02:34:11;;;;;;;6.82;2.10;;;6.10;69.30;;;;;;4992167;28;20042;-77
2022/03/18 02:36:37;;;;;;;7.72;2.35;;;6.00;69.80;;;;;;4977494;28;20019;-78
2022/03/18 02:39:03;;;;;;;6.47;2.40;;;5.90;70.10;;;;;;4977668;28;20027;-77
2022/03/18 02:41:29;;;;;;;3.33;2.63;;;5.90;70.20;;;;;;4977485;28;20370;-77
2022/03/18 02:43:55;;;;;;;5.93;3.08;;;5.80;70.40;;;;;;4977594;28;20023;-78
2022/03/18 02:46:21;;;;;;;4.47;2.42;;;5.70;70.50;;;;;;4992546;28;20034;-78
2022/03/18 02:48:47;;;;;;;10.55;2.60;;;5.70;70.70;;;;;;4987234;28;20501;-77
2022/03/18 02:51:13;;;;;;;5.55;2.63;;;5.70;70.90;;;;;;4992041;28;20070;-78
2022/03/18 02:53:39;;;;;;;5.03;2.95;;;5.70;71.20;;;;;;4991260;28;20508;-78
2022/03/18 02:56:07;;;;;;;7.03;2.97;;;5.70;70.50;;;;;;4992162;28;20046;-78
2022/03/18 02:58:37;;;;;;;5.78;2.83;;;5.70;70.50;;;;;;4977058;28;20053;-78
2022/03/18 03:01:03;;;;;;;4.15;2.97;;;5.70;70.70;;;;;;4995202;28;20027;-77
2022/03/18 03:03:29;;;;;;;8.98;3.25;;;5.60;70.80;;;;;;4996661;28;20034;-77
2022/03/18 03:08:40;;;;;;;6.43;3.20;;;5.40;72.00;;;;;;4982209;28;20092;-78
2022/03/18 03:11:07;;;;;;;5.25;2.90;;;5.40;71.80;;;;;;4981957;28;20046;-77
2022/03/18 03:13:32;;;;;;;9.32;3.30;;;5.30;72.00;;;;;;4977006;28;20031;-78
2022/03/18 03:15:59;;;;;;;8.80;3.28;;;5.30;72.10;;;;;;4976877;28;20031;-78
2022/03/18 03:18:25;;;;;;;5.90;3.03;;;5.30;72.30;;;;;;4991482;28;20577;-78
2022/03/18 03:20:51;;;;;;;5.43;2.83;;;5.30;72.40;;;;;;4991771;28;20093;-77
2022/03/18 03:23:17;;;;;;;9.27;2.75;;;5.30;72.60;;;;;;4976910;28;20038;-77
2022/03/18 03:25:43;;;;;;;6.20;2.97;;;5.40;72.40;;;;;;4976536;28;20101;-78
2022/03/18 03:28:09;;;;;;;7.30;3.53;;;5.30;72.40;;;;;;4976939;28;20066;-77
2022/03/18 03:30:34;;;;;;;8.80;3.20;;;5.20;72.60;;;;;;4976762;28;20045;-78
2022/03/18 03:33:01;;;;;;;5.60;2.90;;;5.20;73.10;;;;;;4976565;28;20109;-77
2022/03/18 03:35:27;;;;;;;6.95;2.40;;;5.10;73.30;;;;;;4976468;28;20478;-77
2022/03/18 03:37:52;;;;;;;5.22;2.63;;;5.10;73.70;;;;;;4991427;28;20102;-77
2022/03/18 03:40:19;;;;;;;7.93;3.30;;;5.20;73.50;;;;;;4976505;28;20465;-78
2022/03/18 03:42:45;;;;;;;6.13;2.72;;;5.20;73.20;;;;;;4990899;28;20023;-78
2022/03/18 03:45:13;;;;;;;6.20;2.22;;;5.10;73.40;;;;;;4976788;28;20035;-77
2022/03/18 03:47:40;;;;;;;10.63;3.55;;;5.00;73.70;;;;;;4983522;28;20097;-79
2022/03/18 03:50:07;;;;;;;4.00;2.45;;;5.00;73.70;;;;;;4987279;28;20121;-78
2022/03/18 03:52:35;;;;;;;10.18;3.08;;;5.10;73.90;;;;;;4975162;28;20031;-78
2022/03/18 03:55:05;;;;;;;6.70;2.78;;;5.00;74.10;;;;;;4974848;28;20038;-78
2022/03/18 03:57:31;;;;;;;;;;;5.00;74.00;;;;;;4976455;28;20463;-78
2022/03/18 03:59:57;;;;;;;4.80;2.17;;;5.00;74.30;;;;;;4983006;28;19956;-78
2022/03/18 04:02:23;;;;;;;7.45;3.10;;;5.10;74.10;;;;;;4994375;28;20034;-77
2022/03/18 04:04:49;;;;;;;11.50;4.47;;;5.00;74.40;;;;;;4995795;28;20023;-77
2022/03/18 04:07:15;;;;;;;6.05;2.30;;;5.00;74.80;;;;;;4981355;28;20039;-78
2022/03/18 04:09:42;;;;;;;4.88;2.47;;;5.00;74.80;;;;;;4976282;28;20061;-77
2022/03/18 04:12:08;;;;;;;6.53;2.63;;;5.00;75.10;;;;;;4975922;28;20046;-78
2022/03/18 04:14:34;;;;;;;7.70;3.05;;;5.00;75.20;;;;;;4976160;28;20033;-78
2022/03/18 04:17:02;;;;;;;7.88;2.75;;;5.00;75.20;;;;;;4991150;28;20023;-78
2022/03/18 04:19:28;;;;;;;8.50;2.72;;;5.10;75.10;;;;;;4990494;28;20397;-78
2022/03/18 04:21:54;;;;;;;5.78;2.47;;;5.20;74.90;;;;;;4991010;28;20031;-78
2022/03/18 04:24:19;;;;;;;5.65;3.08;;;5.10;75.20;;;;;;4991047;28;20050;-77
2022/03/18 04:26:45;;;;;;;12.50;3.53;;;5.10;75.10;;;;;;4989491;28;20050;-77
2022/03/18 04:29:12;;;;;;;4.75;2.80;;;5.10;75.20;;;;;;4976089;28;20117;-77
2022/03/18 04:31:39;;;;;;;8.02;2.97;;;5.20;75.30;;;;;;4975995;28;20089;-78
2022/03/18 04:34:04;;;;;;;4.25;2.63;;;5.20;75.30;;;;;;4990917;28;20126;-77
2022/03/18 04:36:30;;;;;;;8.45;3.28;;;5.20;75.20;;;;;;4989783;28;20062;-78
2022/03/18 04:38:56;;;;;;;11.50;3.22;;;5.20;75.50;;;;;;4976189;28;20038;-78
2022/03/18 04:41:22;;;;;;;10.18;3.08;;;5.20;76.00;;;;;;4975776;28;20027;-77
2022/03/18 04:43:48;;;;;;;7.88;2.85;;;5.20;75.70;;;;;;4975902;28;20027;-77
2022/03/18 04:46:14;;;;;;;7.78;3.30;;;5.10;76.30;;;;;;4976006;28;20183;-78
2022/03/18 04:48:40;;;;;;;6.80;3.15;;;5.20;76.30;;;;;;4994180;28;20503;-78
2022/03/18 04:51:06;;;;;;;6.78;3.28;;;5.10;76.30;;;;;;4990266;28;20037;-78
2022/03/18 04:53:32;;;;;;;6.38;3.17;;;5.10;76.50;;;;;;4990712;28;20390;-77
2022/03/18 04:55:58;;;;;;;6.45;2.83;;;5.20;75.80;;;;;;4994510;28;20069;-77
2022/03/18 04:58:23;;;;;;;5.05;2.83;;;5.20;76.00;;;;;;4988934;28;20081;-78
2022/03/18 05:00:49;;;;;;;8.93;3.00;;;5.30;75.90;;;;;;4995939;28;20026;-78
2022/03/18 05:03:15;;;;;;;9.82;2.90;;;5.40;75.90;;;;;;4998928;28;20074;-78
2022/03/18 05:05:41;;;;;;;5.35;3.25;;;5.40;75.80;;;;;;4985812;28;20520;-78
2022/03/18 05:08:06;;;;;;;3.10;2.28;;;5.40;76.30;;;;;;4979283;28;20085;-78
2022/03/18 05:10:33;;;;;;;8.25;3.25;;;5.30;77.50;;;;;;4979543;28;20029;-78
2022/03/18 05:12:59;;;;;;;8.05;2.95;;;5.30;78.50;;;;;;4978377;28;20041;-78
2022/03/18 05:15:24;;;;;;;5.72;3.05;;;5.30;79.00;;;;;;4977689;28;20098;-78
2022/03/18 05:17:54;;;;;;;9.63;3.40;;;5.30;79.60;;;;;;4978598;28;20516;-78
2022/03/18 05:20:20;;;;;;;5.10;2.75;;;5.30;79.30;;;;;;4979187;28;20112;-77
2022/03/18 05:22:45;;;;;;;7.25;3.13;;;5.30;79.90;;;;;;4977756;28;20019;-78
2022/03/18 05:25:13;;;;;;;8.60;3.28;;;5.30;80.20;;;;;;4978836;28;20042;-78
2022/03/18 05:27:41;;;;;;;6.00;3.50;;;5.30;80.50;;;;;;4978693;28;20865;-78
2022/03/18 05:30:09;;;;;;;11.10;3.08;;;5.40;80.70;;;;;;4978971;28;20030;-78
2022/03/18 05:32:35;;;;;;;8.13;4.28;;;5.40;80.60;;;;;;4979192;28;20018;-78
2022/03/18 05:35:01;;;;;;;10.35;3.30;;;5.50;80.50;;;;;;4978737;28;20035;-78
2022/03/18 05:37:26;;;;;;;8.93;3.90;;;5.40;81.00;;;;;;4978637;28;20035;-78
2022/03/18 05:39:52;;;;;;;6.97;3.60;;;5.50;80.50;;;;;;4994922;28;20088;-78
2022/03/18 05:42:18;;;;;;;11.57;4.03;;;5.50;80.40;;;;;;4989259;28;20022;-78
2022/03/18 05:44:43;;;;;;;6.50;3.30;;;5.50;80.70;;;;;;4993461;28;20122;-79
2022/03/18 05:47:09;;;;;;;6.72;3.15;;;5.50;80.90;;;;;;4982567;28;20102;-77
2022/03/18 05:49:35;;;;;;;10.25;3.33;;;5.50;81.20;;;;;;4990254;28;20132;-78
2022/03/18 05:52:01;;;;;;;7.93;3.55;;;5.50;81.30;;;;;;4978502;28;20030;-77
2022/03/18 05:54:27;;;;;;;8.50;3.95;;;5.40;82.00;;;;;;4984720;28;20082;-78
2022/03/18 05:56:53;;;;;;;8.60;3.65;;;5.40;81.90;;;;;;4997647;28;20433;-79
2022/03/18 05:59:23;;;;;;;8.60;4.88;;;5.50;82.00;;;;;;4985556;28;20034;-79
2022/03/18 06:01:49;;;;;;;8.13;4.30;;;5.50;81.80;;;;;;4997715;28;20022;-79
2022/03/18 06:04:15;;;;;;;8.98;3.58;;;5.50;82.30;;;;;;4995610;28;20033;-79
2022/03/18 06:06:42;;;;;;;9.05;3.97;;;5.50;82.20;;;;;;4995907;28;20121;-78
2022/03/18 06:11:53;;;;;;;11.70;4.55;;;5.70;82.40;;;;;;4986986;28;20069;-78
2022/03/18 06:14:22;;;;;;;11.63;4.97;;;5.70;81.70;;;;;;5002031;28;20567;-78
2022/03/18 06:16:49;;;;;;;11.80;4.30;;;5.70;81.70;;;;;;5007394;28;20397;-79
2022/03/18 06:19:19;;;;;;;9.77;4.18;;;5.70;81.80;;;;;;4996460;28;20062;-79
2022/03/18 06:21:45;;;;;;;7.43;4.55;;;5.70;81.80;;;;;;4994620;28;20018;-77
2022/03/18 06:24:12;;;;;;;25.77;15.90;;;5.70;81.70;;;;;;4998973;28;20061;-78
2022/03/18 06:26:38;;;;;;;19.15;9.40;;;5.70;81.70;;;;;;5006780;28;20077;-79
2022/03/18 06:29:05;;;;;;;11.40;5.05;;;5.70;81.90;;;;;;4998407;28;20054;-79
2022/03/18 06:31:32;;;;;;;12.98;5.57;;;5.70;82.00;;;;;;4995700;28;20027;-78
2022/03/18 06:33:58;;;;;;;11.55;5.82;;;5.70;81.90;;;;;;4985944;28;20040;-83
2022/03/18 06:36:24;;;;;;;17.33;10.07;;;5.70;82.10;;;;;;5001910;28;20056;-82
2022/03/18 06:38:49;;;;;;;12.77;7.93;;;5.70;82.20;;;;;;4992567;28;20445;-78
2022/03/18 06:41:16;;;;;;;16.00;6.90;;;5.70;82.00;;;;;;4995506;28;20030;-79
2022/03/18 06:43:43;;;;;;;9.80;5.78;;;5.70;82.20;;;;;;5004251;28;20485;-78
2022/03/18 06:46:11;;;;;;;14.15;6.28;;;5.70;82.30;;;;;;5006737;28;20031;-78
2022/03/18 06:48:36;;;;;;;11.25;6.60;;;5.70;82.60;;;;;;5003680;28;20140;-77
2022/03/18 06:51:02;;;;;;;13.68;5.78;;;5.80;82.10;;;;;;5001009;28;20057;-77
2022/03/18 06:53:28;;;;;;;11.45;5.22;;;5.80;82.50;;;;;;4994199;28;20196;-77
2022/03/18 06:55:54;;;;;;;11.25;5.95;;;5.90;82.20;;;;;;5000289;28;20528;-77
2022/03/18 06:58:20;;;;;;;9.60;5.90;;;5.90;82.00;;;;;;4990191;28;20597;-77
2022/03/18 07:00:45;;;;;;;11.75;5.85;;;6.00;81.60;;;;;;5001449;28;20033;-77
2022/03/18 07:03:13;;;;;;;14.90;6.07;;;6.20;81.30;;;;;;4989112;28;20027;-77
2022/03/18 07:05:39;;;;;;;10.93;5.55;;;6.20;81.00;;;;;;4976137;28;20135;-77
2022/03/18 07:08:04;;;;;;;12.93;6.32;;;6.30;81.00;;;;;;4976217;28;20066;-77
2022/03/18 07:10:30;;;;;;;11.70;5.68;;;6.90;80.00;;;;;;5000411;28;20033;-77
2022/03/18 07:12:56;;;;;;;10.27;5.82;;;9.20;73.30;;;;;;4996332;28;20030;-77
2022/03/18 07:15:21;;;;;;;8.85;4.60;;;10.60;66.60;;;;;;4998256;28;20807;-78
2022/03/18 07:17:59;;;;;;;9.48;5.32;;;12.20;61.80;;;;;;5014253;28;20022;-78
2022/03/18 07:20:26;;;;;;;11.93;5.30;;;13.00;55.40;;;;;;5016026;28;20022;-78
2022/03/18 07:23:15;;;;;;;11.70;5.40;;;14.00;54.00;;;;;;4991781;28;20123;-78
2022/03/18 07:25:43;;;;;;;12.68;5.28;;;14.40;52.30;;;;;;4991502;28;20039;-77
2022/03/18 07:28:11;;;;;;;10.10;5.22;;;14.90;49.10;;;;;;4975870;28;20466;-78
2022/03/18 07:30:37;;;;;;;8.02;4.53;;;15.20;47.70;;;;;;4978806;28;20122;-78
2022/03/18 07:33:03;;;;;;;19.55;10.95;;;16.00;46.60;;;;;;4976579;28;20026;-78
2022/03/18 07:35:30;;;;;;;10.00;6.00;;;15.50;46.00;;;;;;4978819;28;20117;-78
2022/03/18 07:37:56;;;;;;;14.23;9.32;;;15.80;47.40;;;;;;5002005;28;20550;-78
2022/03/18 07:40:21;;;;;;;8.95;5.68;;;15.80;45.80;;;;;;5003462;28;20034;-78
2022/03/18 07:42:49;;;;;;;10.52;5.40;;;16.70;45.10;;;;;;4995836;28;20107;-79
2022/03/18 07:45:26;;;;;;;10.80;5.05;;;17.30;42.60;;;;;;4976443;28;20034;-78
2022/03/18 07:47:52;;;;;;;11.07;6.03;;;17.80;41.10;;;;;;4985473;28;20623;-79
2022/03/18 07:50:22;;;;;;;11.65;5.97;;;17.30;42.10;;;;;;4978156;28;20477;-79
2022/03/18 07:52:49;;;;;;;13.50;6.85;;;18.00;40.50;;;;;;4976430;28;20027;-79
2022/03/18 07:55:16;;;;;;;17.35;11.65;;;18.70;40.10;;;;;;4985889;28;20034;-79
2022/03/18 07:57:42;;;;;;;12.95;8.10;;;19.50;37.00;;;;;;4976218;28;20026;-79
2022/03/18 08:00:10;;;;;;;12.27;6.82;;;19.10;36.60;;;;;;4986784;28;20034;-79
2022/03/18 08:02:36;;;;;;;11.07;7.03;;;19.70;36.30;;;;;;4988063;28;20030;-79
2022/03/18 08:05:02;;;;;;;15.40;8.48;;;18.80;36.60;;;;;;4975803;28;20030;-79
2022/03/18 08:07:28;;;;;;;13.50;8.93;;;18.30;38.00;;;;;;4976067;28;20030;-79
2022/03/18 08:09:54;;;;;;;11.52;5.57;;;19.50;37.70;;;;;;4975966;28;20022;-79
2022/03/18 08:12:19;;;;;;;8.65;5.43;;;19.20;35.90;;;;;;4991010;28;20041;-79
2022/03/18 08:14:45;;;;;;;7.80;5.93;;;18.50;37.40;;;;;;4995504;28;20031;-79
2022/03/18 08:17:11;;;;;;;7.70;4.95;;;18.20;37.10;;;;;;4995455;28;20497;-78
2022/03/18 08:19:37;;;;;;;7.68;5.25;;;17.00;39.60;;;;;;4994744;28;20031;-79
2022/03/18 08:22:04;;;;;;;9.00;5.53;;;18.30;39.30;;;;;;4975954;28;20106;-79
2022/03/18 08:24:31;;;;;;;9.95;6.32;;;19.50;35.00;;;;;;4976002;28;20110;-79
2022/03/18 08:26:56;;;;;;;16.33;9.48;;;19.00;36.20;;;;;;4975814;28;20051;-78
2022/03/18 08:29:22;;;;;;;11.88;6.03;;;18.60;36.60;;;;;;4975459;28;20035;-79
2022/03/18 08:31:48;;;;;;;14.80;7.25;;;18.90;35.70;;;;;;4991046;28;20525;-79
2022/03/18 08:34:15;;;;;;;12.73;7.65;;;19.60;35.20;;;;;;5003015;28;20034;-79
2022/03/18 08:36:41;;;;;;;9.27;6.25;;;18.80;35.70;;;;;;4999453;28;20054;-79
2022/03/18 08:39:06;;;;;;;10.57;7.57;;;19.40;34.00;;;;;;4984712;28;20027;-79
2022/03/18 08:41:32;;;;;;;10.50;6.15;;;20.40;33.00;;;;;;5000933;28;20566;-79
2022/03/18 08:43:58;;;;;;;12.80;8.35;;;21.30;33.30;;;;;;4997886;28;20061;-78
2022/03/18 08:46:23;;;;;;;8.35;5.32;;;21.30;31.60;;;;;;5007554;28;20041;-78
2022/03/18 08:48:49;;;;;;;9.60;4.75;;;20.30;32.90;;;;;;4987811;28;20529;-78
2022/03/18 08:51:15;;;;;;;7.72;4.72;;;19.80;32.50;;;;;;4979222;28;20026;-80
2022/03/18 08:53:42;;;;;;;8.68;4.72;;;20.20;33.60;;;;;;4979947;28;20493;-79
2022/03/18 08:56:08;;;;;;;7.28;4.35;;;20.30;32.00;;;;;;4986993;28;20042;-79
2022/03/18 08:58:33;;;;;;;10.85;4.07;;;20.60;32.90;;;;;;4994025;28;20485;-79
2022/03/18 09:00:59;;;;;;;8.95;4.13;;;22.00;30.70;;;;;;4979409;28;20030;-79
2022/03/18 09:03:25;;;;;;;8.98;4.53;;;22.30;30.70;;;;;;4977663;28;20602;-79
2022/03/18 09:05:51;;;;;;;7.07;4.57;;;22.50;28.10;;;;;;5007168;28;20033;-79
2022/03/18 09:08:17;;;;;;;6.30;4.18;;;22.60;28.00;;;;;;5013681;28;20038;-79
2022/03/18 09:10:42;;;;;;;6.85;4.45;;;23.00;29.30;;;;;;4998203;28;20021;-79
2022/03/18 09:13:08;;;;;;;7.80;4.45;;;22.50;28.70;;;;;;5015907;28;20084;-79
2022/03/18 09:15:34;;;;;;;8.70;4.20;;;22.00;29.20;;;;;;5014050;28;20077;-79
2022/03/18 09:18:00;;;;;;;8.57;4.25;;;21.90;29.40;;;;;;4999742;28;20480;-79
2022/03/18 09:20:26;;;;;;;5.68;3.60;;;22.60;28.90;;;;;;5007029;28;20497;-79
2022/03/18 09:22:51;;;;;;;5.68;3.40;;;23.60;26.60;;;;;;5004040;28;20397;-79
2022/03/18 09:25:17;;;;;;;4.85;3.55;;;24.10;25.90;;;;;;5016704;28;20121;-79
2022/03/18 09:27:43;;;;;;;7.80;3.72;;;23.60;27.50;;;;;;5011119;28;20050;-79
2022/03/18 09:30:11;;;;;;;5.82;3.08;;;22.90;25.00;;;;;;5006609;28;20036;-79
2022/03/18 09:32:40;;;;;;;5.63;2.80;;;22.40;27.10;;;;;;5018016;28;20060;-79
2022/03/18 09:35:06;;;;;;;;;;;22.50;26.00;;;;;;5008387;28;20057;-79
2022/03/18 09:37:31;;;;;;;5.28;2.83;;;22.40;25.20;;;;;;4995908;28;19910;-79
2022/03/18 09:39:57;;;;;;;4.25;2.58;;;22.00;25.90;;;;;;5006531;28;20438;-79
2022/03/18 09:42:23;;;;;;;4.70;2.60;;;22.30;26.20;;;;;;5010632;28;20045;-79
2022/03/18 09:44:48;;;;;;;4.82;2.78;;;22.80;25.90;;;;;;5013426;28;20041;-80
2022/03/18 09:47:14;;;;;;;4.28;2.25;;;22.50;23.80;;;;;;4993626;28;20034;-79
2022/03/18 09:49:44;;;;;;;4.35;2.42;;;21.10;26.20;;;;;;4997898;28;20080;-79
2022/03/18 09:52:10;;;;;;;4.95;3.08;;;20.90;25.50;;;;;;4987334;28;20046;-79
2022/03/18 09:54:36;;;;;;;6.53;2.60;;;21.40;25.60;;;;;;4978067;28;20043;-79
2022/03/18 09:57:02;;;;;;;4.57;2.40;;;22.20;26.00;;;;;;5000457;28;20034;-79
2022/03/18 09:59:28;;;;;;;4.63;2.33;;;22.90;25.70;;;;;;5002939;28;20169;-79
2022/03/18 10:02:23;;;;;;;5.30;3.15;;;22.80;24.10;;;;;;5003828;28;20054;-79
2022/03/18 10:04:58;;;;;;;5.20;3.10;;;21.00;25.40;;;;;;5001600;28;20033;-79
2022/03/18 10:07:24;;;;;;;4.30;1.98;;;20.80;24.30;;;;;;5016905;28;20033;-78
2022/03/18 10:10:15;;;;;;;6.00;3.03;;;20.80;26.10;;;;;;5015698;28;20041;-79
2022/03/18 10:12:44;;;;;;;4.00;2.72;;;21.00;25.90;;;;;;4999481;28;20033;-79
2022/03/18 10:15:22;;;;;;;;;;;21.10;25.90;;;;;;5003457;28;20037;-79
2022/03/18 10:17:56;;;;;;;3.78;2.40;;;19.60;25.30;;;;;;5004706;28;19906;-79
2022/03/18 10:20:41;;;;;;;3.35;1.58;;;19.60;25.60;;;;;;5004860;28;20037;-79
2022/03/18 10:23:15;;;;;;;4.80;2.20;;;18.60;28.00;;;;;;4995325;28;20019;-78
2022/03/18 10:25:51;;;;;;;2.58;1.48;;;18.20;29.20;;;;;;4984434;28;20053;-79
2022/03/18 10:28:41;;;;;;;4.60;2.10;;;17.00;28.50;;;;;;5004476;28;20070;-78
2022/03/18 10:31:18;;;;;;;7.15;4.03;;;15.80;30.80;;;;;;5009700;28;20052;-78
2022/03/18 10:37:04;;;;;;;4.85;1.83;;;15.90;32.60;;;;;;5005665;28;20404;-78
2022/03/18 10:39:31;;;;;;;2.92;1.70;;;15.80;32.60;;;;;;5003187;28;20567;-79
2022/03/18 10:42:02;;;;;;;3.75;1.45;;;15.70;32.80;;;;;;5004233;28;20397;-78
2022/03/18 10:44:58;;;;;;;3.03;1.52;;;15.50;32.00;;;;;;5002155;28;20025;-79
2022/03/18 10:47:41;;;;;;;5.65;2.10;;;15.60;34.50;;;;;;4996345;28;20026;-75
2022/03/18 10:50:10;;;;;;;3.22;1.45;;;15.90;33.40;;;;;;4991552;28;20501;-77
2022/03/18 10:52:40;;;;;;;4.72;2.05;;;15.60;32.60;;;;;;4977150;28;20054;-77
2022/03/18 10:55:18;;;;;;;;;;;15.70;33.60;;;;;;4991265;28;20023;-77
2022/03/18 10:58:01;;;;;;;4.25;2.33;;;15.20;32.80;;;;;;4984064;28;19909;-77
2022/03/18 11:00:29;;;;;;;5.18;2.85;;;15.20;31.80;;;;;;5000606;28;20026;-78
2022/03/18 11:02:59;;;;;;;5.20;1.98;;;14.90;33.00;;;;;;5001388;28;20109;-78
2022/03/18 11:05:27;;;;;;;6.78;1.95;;;15.30;32.70;;;;;;4996815;28;20038;-78
2022/03/18 11:07:58;;;;;;;5.05;1.80;;;15.30;30.90;;;;;;4994696;28;20088;-79
2022/03/18 11:13:25;;;;;;;2.78;1.77;;;15.40;32.60;;;;;;4975100;28;20567;-77
2022/03/18 11:15:52;;;;;;;3.92;1.92;;;15.50;32.60;;;;;;4976761;28;20026;-78
2022/03/18 11:18:19;;;;;;;4.50;2.10;;;15.30;32.40;;;;;;4976744;28;20051;-79
2022/03/18 11:20:44;;;;;;;4.85;2.50;;;15.40;32.70;;;;;;4977044;28;20030;-79
2022/03/18 11:23:24;;;;;;;4.65;2.00;;;15.20;32.00;;;;;;4976852;28;20078;-79
2022/03/18 11:25:54;;;;;;;4.82;1.90;;;15.20;32.70;;;;;;4976342;28;20038;-79
2022/03/18 11:28:20;;;;;;;4.22;1.90;;;15.50;33.90;;;;;;4991565;28;20046;-79
2022/03/18 11:30:48;;;;;;;3.20;1.70;;;15.70;34.00;;;;;;4991635;28;20052;-78
2022/03/18 11:33:14;;;;;;;4.43;1.95;;;15.70;32.10;;;;;;4976927;28;20085;-77
2022/03/18 11:35:49;;;;;;;8.40;3.50;;;15.80;32.00;;;;;;4976721;28;20035;-77
2022/03/18 11:38:23;;;;;;;5.32;2.83;;;15.80;33.00;;;;;;4976400;28;20019;-79
2022/03/18 11:41:01;;;;;;;6.88;3.10;;;15.90;32.90;;;;;;4987781;28;20022;-79
2022/03/18 11:43:30;;;;;;;7.47;2.55;;;15.50;33.60;;;;;;4981169;28;20097;-79
2022/03/18 11:46:13;;;;;;;7.10;3.65;;;15.60;33.40;;;;;;4991205;28;20053;-78
2022/03/18 11:48:54;;;;;;;6.55;2.40;;;15.50;32.50;;;;;;4994273;28;20030;-78
2022/03/18 11:51:27;;;;;;;7.15;2.35;;;15.70;33.00;;;;;;4987603;28;20101;-79
2022/03/18 11:53:55;;;;;;;5.28;2.75;;;15.70;32.60;;;;;;4976899;28;20046;-78
2022/03/18 11:56:24;;;;;;;3.95;2.08;;;15.80;34.10;;;;;;4976678;28;20422;-78
2022/03/18 11:58:50;;;;;;;6.05;2.78;;;15.70;32.00;;;;;;4975610;28;20026;-77
2022/03/18 12:01:38;;;;;;;5.55;2.70;;;15.80;32.60;;;;;;4982162;28;20084;-77
2022/03/18 12:04:06;;;;;;;4.65;2.00;;;15.80;32.60;;;;;;4978707;28;20133;-77
2022/03/18 12:06:32;;;;;;;6.55;3.05;;;15.90;32.90;;;;;;4976805;28;20045;-77
2022/03/18 12:08:59;;;;;;;8.10;3.53;;;15.80;33.00;;;;;;4990844;28;20027;-77
2022/03/18 12:11:30;;;;;;;3.88;1.80;;;15.80;33.70;;;;;;4984423;28;20034;-77
2022/03/18 12:13:56;;;;;;;3.22;2.03;;;16.10;32.40;;;;;;4996018;28;20031;-80
2022/03/18 12:16:22;;;;;;;5.53;2.42;;;15.80;31.50;;;;;;4993490;28;20026;-77
2022/03/18 12:18:54;;;;;;;5.32;2.10;;;15.80;33.40;;;;;;4974476;28;20042;-77
2022/03/18 12:21:35;;;;;;;8.32;3.63;;;15.70;32.40;;;;;;4974661;28;20456;-78
2022/03/18 12:24:07;;;;;;;3.80;1.95;;;16.00;34.00;;;;;;4980389;28;20154;-78
2022/03/18 12:26:34;;;;;;;3.83;2.42;;;15.80;31.30;;;;;;4993969;28;20058;-78
2022/03/18 12:29:00;;;;;;;4.43;2.05;;;16.10;31.00;;;;;;4992733;28;20037;-78
2022/03/18 12:31:26;;;;;;;3.95;2.40;;;16.30;30.90;;;;;;4994957;28;20125;-78
2022/03/18 12:34:00;;;;;;;4.95;2.30;;;16.30;31.60;;;;;;5001554;28;20032;-78
2022/03/18 12:36:29;;;;;;;5.07;2.63;;;16.40;31.60;;;;;;4993225;28;20026;-78
2022/03/18 12:39:08;;;;;;;6.85;2.42;;;16.60;32.20;;;;;;4994563;28;20030;-78
2022/03/18 12:41:34;;;;;;;6.35;2.50;;;16.50;31.60;;;;;;4994853;28;20035;-78
2022/03/18 12:44:00;;;;;;;9.45;2.72;;;16.60;32.10;;;;;;4991988;28;20026;-78
2022/03/18 12:46:28;;;;;;;6.45;2.90;;;16.50;32.40;;;;;;4995298;28;20036;-78
2022/03/18 12:48:53;;;;;;;4.93;2.50;;;16.40;30.90;;;;;;4990192;28;20122;-78
2022/03/18 12:51:19;;;;;;;4.85;2.30;;;16.60;31.70;;;;;;4976054;28;20062;-78
2022/03/18 12:53:46;;;;;;;4.95;2.45;;;16.80;31.00;;;;;;4975643;28;20505;-78
2022/03/18 12:56:19;;;;;;;4.05;1.88;;;16.80;31.80;;;;;;4975577;28;20031;-77
2022/03/18 12:58:46;;;;;;;4.15;2.20;;;16.80;29.70;;;;;;4975627;28;20050;-79
2022/03/18 13:01:13;;;;;;;3.92;2.22;;;16.70;30.00;;;;;;4993891;28;20033;-79
2022/03/18 13:03:47;;;;;;;4.82;2.15;;;16.60;29.60;;;;;;4993604;28;20015;-79
2022/03/18 13:06:20;;;;;;;3.50;1.75;;;16.50;30.60;;;;;;4995383;28;20089;-79
2022/03/18 13:09:08;;;;;;;3.47;1.35;;;16.40;29.40;;;;;;4981392;28;20030;-79
2022/03/18 13:11:35;;;;;;;4.35;2.00;;;16.30;29.90;;;;;;4984167;28;20096;-79